sensor_id;sensor_type;location;lat;lon;timestamp;temperature;humidity
46117;DHT22;32591;48.102;11.772;2023-12-20T00:00:37;6.20;99.90
46117;DHT22;32591;48.102;11.772;2023-12-20T00:03:04;6.20;99.90
46117;DHT22;32591;48.102;11.772;2023-12-20T00:05:31;6.10;99.90
46117;DHT22;32591;48.102;11.772;2023-12-20T00:07:58;6.10;99.90
46117;DHT22;32591;48.102;11.772;2023-12-20T00:10:25;6.10;99.90
46117;DHT22;32591;48.102;11.772;2023-12-20T00:12:53;6.00;99.90
46117;DHT22;32591;48.102;11.772;2023-12-20T00:15:20;6.00;99.90
46117;DHT22;32591;48.102;11.772;2023-12-20T00:17:47;6.00;99.90
46117;DHT22;32591;48.102;11.772;2023-12-20T00:20:14;6.00;99.90
46117;DHT22;32591;48.102;11.772;2023-12-20T00:22:41;6.00;99.90
46117;DHT22;32591;48.102;11.772;2023-12-20T00:25:08;6.00;99.90
46117;DHT22;32591;48.102;11.772;2023-12-20T00:27:34;6.10;99.90
46117;DHT22;32591;48.102;11.772;2023-12-20T00:30:03;6.10;99.90
46117;DHT22;32591;48.102;11.772;2023-12-20T00:32:30;6.20;99.90
46117;DHT22;32591;48.102;11.772;2023-12-20T00:34:57;6.20;99.90
46117;DHT22;32591;48.102;11.772;2023-12-20T00:37:24;6.40;99.90
46117;DHT22;32591;48.102;11.772;2023-12-20T00:39:51;6.60;99.90
46117;DHT22;32591;48.102;11.772;2023-12-20T00:42:17;6.70;99.90
46117;DHT22;32591;48.102;11.772;2023-12-20T00:44:44;6.80;99.70
46117;DHT22;32591;48.102;11.772;2023-12-20T00:47:12;6.90;99.60
46117;DHT22;32591;48.102;11.772;2023-12-20T00:49:39;7.00;98.90
46117;DHT22;32591;48.102;11.772;2023-12-20T00:52:06;7.10;98.40
46117;DHT22;32591;48.102;11.772;2023-12-20T00:54:33;7.10;98.50
46117;DHT22;32591;48.102;11.772;2023-12-20T00:57:00;7.10;98.60
46117;DHT22;32591;48.102;11.772;2023-12-20T00:59:26;7.10;98.50
46117;DHT22;32591;48.102;11.772;2023-12-20T01:01:53;7.10;98.40
46117;DHT22;32591;48.102;11.772;2023-12-20T01:04:22;7.10;99.00
46117;DHT22;32591;48.102;11.772;2023-12-20T01:06:49;7.00;99.40
46117;DHT22;32591;48.102;11.772;2023-12-20T01:09:15;7.00;99.80
46117;DHT22;32591;48.102;11.772;2023-12-20T01:11:42;6.90;99.60
46117;DHT22;32591;48.102;11.772;2023-12-20T01:14:09;6.80;99.90
46117;DHT22;32591;48.102;11.772;2023-12-20T01:16:36;6.80;99.90
46117;DHT22;32591;48.102;11.772;2023-12-20T01:19:03;6.70;99.90
46117;DHT22;32591;48.102;11.772;2023-12-20T01:21:31;6.70;99.90
46117;DHT22;32591;48.102;11.772;2023-12-20T01:23:58;6.70;99.90
46117;DHT22;32591;48.102;11.772;2023-12-20T01:26:25;6.60;99.90
46117;DHT22;32591;48.102;11.772;2023-12-20T01:28:51;6.50;99.90
46117;DHT22;32591;48.102;11.772;2023-12-20T01:31:18;6.60;99.90
46117;DHT22;32591;48.102;11.772;2023-12-20T01:33:45;6.60;99.90
46117;DHT22;32591;48.102;11.772;2023-12-20T01:36:12;6.60;99.90
46117;DHT22;32591;48.102;11.772;2023-12-20T01:38:41;6.70;99.90
46117;DHT22;32591;48.102;11.772;2023-12-20T01:41:08;6.60;99.90
46117;DHT22;32591;48.102;11.772;2023-12-20T01:43:34;6.60;99.90
46117;DHT22;32591;48.102;11.772;2023-12-20T01:46:01;6.50;99.90
46117;DHT22;32591;48.102;11.772;2023-12-20T01:48:28;6.40;99.90
46117;DHT22;32591;48.102;11.772;2023-12-20T01:50:57;6.40;99.90
46117;DHT22;32591;48.102;11.772;2023-12-20T01:53:25;6.30;99.90
46117;DHT22;32591;48.102;11.772;2023-12-20T01:55:54;6.30;99.90
46117;DHT22;32591;48.102;11.772;2023-12-20T01:58:21;6.30;99.90
46117;DHT22;32591;48.102;11.772;2023-12-20T02:00:49;6.30;99.90
46117;DHT22;32591;48.102;11.772;2023-12-20T02:03:15;6.30;99.90
46117;DHT22;32591;48.102;11.772;2023-12-20T02:05:43;6.30;99.90
46117;DHT22;32591;48.102;11.772;2023-12-20T02:08:10;6.40;99.90
46117;DHT22;32591;48.102;11.772;2023-12-20T02:10:37;6.40;99.90
46117;DHT22;32591;48.102;11.772;2023-12-20T02:13:06;6.50;99.90
46117;DHT22;32591;48.102;11.772;2023-12-20T02:15:33;6.50;99.90
46117;DHT22;32591;48.102;11.772;2023-12-20T02:18:02;6.60;99.90
46117;DHT22;32591;48.102;11.772;2023-12-20T02:20:29;6.60;99.90
46117;DHT22;32591;48.102;11.772;2023-12-20T02:22:57;6.70;99.90
46117;DHT22;32591;48.102;11.772;2023-12-20T02:25:24;6.70;99.90
46117;DHT22;32591;48.102;11.772;2023-12-20T02:27:51;6.80;99.90
46117;DHT22;32591;48.102;11.772;2023-12-20T02:30:18;6.80;99.90
46117;DHT22;32591;48.102;11.772;2023-12-20T02:32:45;6.80;99.90
46117;DHT22;32591;48.102;11.772;2023-12-20T02:35:12;6.80;99.90
46117;DHT22;32591;48.102;11.772;2023-12-20T02:37:38;6.80;99.90
46117;DHT22;32591;48.102;11.772;2023-12-20T02:40:07;6.80;99.90
46117;DHT22;32591;48.102;11.772;2023-12-20T02:42:34;6.70;99.90
46117;DHT22;32591;48.102;11.772;2023-12-20T02:45:01;6.70;99.90
46117;DHT22;32591;48.102;11.772;2023-12-20T02:47:28;6.60;99.90
46117;DHT22;32591;48.102;11.772;2023-12-20T02:49:55;6.60;99.90
46117;DHT22;32591;48.102;11.772;2023-12-20T02:52:22;6.70;99.90
46117;DHT22;32591;48.102;11.772;2023-12-20T02:54:49;6.60;99.90
46117;DHT22;32591;48.102;11.772;2023-12-20T02:57:17;6.70;99.90
46117;DHT22;32591;48.102;11.772;2023-12-20T02:59:43;6.60;99.90
46117;DHT22;32591;48.102;11.772;2023-12-20T03:02:10;6.70;99.90
46117;DHT22;32591;48.102;11.772;2023-12-20T03:04:37;6.60;99.90
46117;DHT22;32591;48.102;11.772;2023-12-20T03:07:04;6.60;99.90
46117;DHT22;32591;48.102;11.772;2023-12-20T03:09:30;6.50;99.90
46117;DHT22;32591;48.102;11.772;2023-12-20T03:11:57;6.50;99.90
46117;DHT22;32591;48.102;11.772;2023-12-20T03:14:25;6.50;99.90
46117;DHT22;32591;48.102;11.772;2023-12-20T03:16:52;6.60;99.90
46117;DHT22;32591;48.102;11.772;2023-12-20T03:19:19;6.70;99.90
46117;DHT22;32591;48.102;11.772;2023-12-20T03:21:46;6.60;99.90
46117;DHT22;32591;48.102;11.772;2023-12-20T03:24:12;6.40;99.90
46117;DHT22;32591;48.102;11.772;2023-12-20T03:26:39;6.40;99.90
46117;DHT22;32591;48.102;11.772;2023-12-20T03:29:06;6.30;99.90
46117;DHT22;32591;48.102;11.772;2023-12-20T03:31:34;6.30;99.90
46117;DHT22;32591;48.102;11.772;2023-12-20T03:34:01;6.30;99.90
46117;DHT22;32591;48.102;11.772;2023-12-20T03:36:27;6.20;99.90
46117;DHT22;32591;48.102;11.772;2023-12-20T03:38:54;6.20;99.90
46117;DHT22;32591;48.102;11.772;2023-12-20T03:41:21;6.20;99.90
46117;DHT22;32591;48.102;11.772;2023-12-20T03:43:48;6.10;99.90
46117;DHT22;32591;48.102;11.772;2023-12-20T03:46:14;6.10;99.90
46117;DHT22;32591;48.102;11.772;2023-12-20T03:48:43;6.10;99.90
46117;DHT22;32591;48.102;11.772;2023-12-20T03:51:10;6.10;99.90
46117;DHT22;32591;48.102;11.772;2023-12-20T03:53:37;6.10;99.90
46117;DHT22;32591;48.102;11.772;2023-12-20T03:56:06;6.10;99.90
46117;DHT22;32591;48.102;11.772;2023-12-20T03:58:32;6.10;99.90
46117;DHT22;32591;48.102;11.772;2023-12-20T04:00:59;6.10;99.90
46117;DHT22;32591;48.102;11.772;2023-12-20T04:03:26;6.20;99.90
46117;DHT22;32591;48.102;11.772;2023-12-20T04:05:55;6.10;99.90
46117;DHT22;32591;48.102;11.772;2023-12-20T04:08:21;6.20;99.90
46117;DHT22;32591;48.102;11.772;2023-12-20T04:10:49;6.10;99.90
46117;DHT22;32591;48.102;11.772;2023-12-20T04:13:16;6.20;99.90
46117;DHT22;32591;48.102;11.772;2023-12-20T04:15:42;6.20;99.90
46117;DHT22;32591;48.102;11.772;2023-12-20T04:18:09;6.20;99.90
46117;DHT22;32591;48.102;11.772;2023-12-20T04:20:36;6.20;99.90
46117;DHT22;32591;48.102;11.772;2023-12-20T04:23:04;6.20;99.90
46117;DHT22;32591;48.102;11.772;2023-12-20T04:25:31;6.20;99.90
46117;DHT22;32591;48.102;11.772;2023-12-20T04:27:58;6.20;99.90
46117;DHT22;32591;48.102;11.772;2023-12-20T04:30:25;6.30;99.90
46117;DHT22;32591;48.102;11.772;2023-12-20T04:32:51;6.30;99.90
46117;DHT22;32591;48.102;11.772;2023-12-20T04:35:18;6.40;99.90
46117;DHT22;32591;48.102;11.772;2023-12-20T04:37:45;6.40;99.90
46117;DHT22;32591;48.102;11.772;2023-12-20T04:40:14;6.40;99.90
46117;DHT22;32591;48.102;11.772;2023-12-20T04:42:40;6.40;99.90
46117;DHT22;32591;48.102;11.772;2023-12-20T04:45:07;6.50;99.90
46117;DHT22;32591;48.102;11.772;2023-12-20T04:47:35;6.50;99.90
46117;DHT22;32591;48.102;11.772;2023-12-20T04:50:01;6.60;99.90
46117;DHT22;32591;48.102;11.772;2023-12-20T04:52:29;6.60;99.90
46117;DHT22;32591;48.102;11.772;2023-12-20T04:54:56;6.50;99.90
46117;DHT22;32591;48.102;11.772;2023-12-20T04:57:24;6.50;99.90
46117;DHT22;32591;48.102;11.772;2023-12-20T04:59:51;7.10;99.90
46117;DHT22;32591;48.102;11.772;2023-12-20T05:02:18;6.50;99.90
46117;DHT22;32591;48.102;11.772;2023-12-20T05:04:44;6.50;99.90
46117;DHT22;32591;48.102;11.772;2023-12-20T05:10:53;6.40;99.90
46117;DHT22;32591;48.102;11.772;2023-12-20T05:13:21;6.50;99.90
46117;DHT22;32591;48.102;11.772;2023-12-20T05:15:48;6.50;99.90
46117;DHT22;32591;48.102;11.772;2023-12-20T05:18:15;6.50;99.90
46117;DHT22;32591;48.102;11.772;2023-12-20T05:20:42;6.50;99.90
46117;DHT22;32591;48.102;11.772;2023-12-20T05:23:09;6.40;99.90
46117;DHT22;32591;48.102;11.772;2023-12-20T05:25:39;6.40;99.90
46117;DHT22;32591;48.102;11.772;2023-12-20T05:28:06;6.40;99.90
46117;DHT22;32591;48.102;11.772;2023-12-20T05:30:34;6.20;99.90
46117;DHT22;32591;48.102;11.772;2023-12-20T05:33:01;6.20;99.90
46117;DHT22;32591;48.102;11.772;2023-12-20T05:35:28;6.10;99.90
46117;DHT22;32591;48.102;11.772;2023-12-20T05:37:55;6.00;99.90
46117;DHT22;32591;48.102;11.772;2023-12-20T05:40:22;6.00;99.90
46117;DHT22;32591;48.102;11.772;2023-12-20T05:42:49;6.00;99.90
46117;DHT22;32591;48.102;11.772;2023-12-20T05:45:15;5.90;99.90
46117;DHT22;32591;48.102;11.772;2023-12-20T05:47:44;5.90;99.90
46117;DHT22;32591;48.102;11.772;2023-12-20T05:50:10;5.80;99.90
46117;DHT22;32591;48.102;11.772;2023-12-20T05:52:37;5.70;99.90
46117;DHT22;32591;48.102;11.772;2023-12-20T05:55:04;5.60;99.90
46117;DHT22;32591;48.102;11.772;2023-12-20T05:57:31;5.60;99.90
46117;DHT22;32591;48.102;11.772;2023-12-20T05:59:58;5.50;99.90
46117;DHT22;32591;48.102;11.772;2023-12-20T06:02:25;5.60;99.90
46117;DHT22;32591;48.102;11.772;2023-12-20T06:04:53;5.60;99.90
46117;DHT22;32591;48.102;11.772;2023-12-20T06:07:20;5.50;99.90
46117;DHT22;32591;48.102;11.772;2023-12-20T06:09:47;5.50;99.90
46117;DHT22;32591;48.102;11.772;2023-12-20T06:12:13;5.50;99.90
46117;DHT22;32591;48.102;11.772;2023-12-20T06:14:40;5.50;99.90
46117;DHT22;32591;48.102;11.772;2023-12-20T06:17:07;5.50;99.90
46117;DHT22;32591;48.102;11.772;2023-12-20T06:19:34;5.50;99.90
46117;DHT22;32591;48.102;11.772;2023-12-20T06:22:02;5.50;99.90
46117;DHT22;32591;48.102;11.772;2023-12-20T06:24:29;5.40;99.90
46117;DHT22;32591;48.102;11.772;2023-12-20T06:26:59;5.40;99.90
46117;DHT22;32591;48.102;11.772;2023-12-20T06:29:26;5.40;99.90
46117;DHT22;32591;48.102;11.772;2023-12-20T06:31:53;5.40;99.90
46117;DHT22;32591;48.102;11.772;2023-12-20T06:34:19;5.30;99.90
46117;DHT22;32591;48.102;11.772;2023-12-20T06:36:46;5.20;99.90
46117;DHT22;32591;48.102;11.772;2023-12-20T06:39:14;5.10;99.90
46117;DHT22;32591;48.102;11.772;2023-12-20T06:41:41;5.00;99.90
46117;DHT22;32591;48.102;11.772;2023-12-20T06:44:08;5.00;99.90
46117;DHT22;32591;48.102;11.772;2023-12-20T06:46:35;4.90;99.90
46117;DHT22;32591;48.102;11.772;2023-12-20T06:49:02;5.00;99.90
46117;DHT22;32591;48.102;11.772;2023-12-20T06:51:29;4.90;99.90
46117;DHT22;32591;48.102;11.772;2023-12-20T06:53:56;5.50;99.90
46117;DHT22;32591;48.102;11.772;2023-12-20T06:56:24;4.90;99.90
46117;DHT22;32591;48.102;11.772;2023-12-20T06:58:51;4.90;99.90
46117;DHT22;32591;48.102;11.772;2023-12-20T07:01:18;4.90;99.90
46117;DHT22;32591;48.102;11.772;2023-12-20T07:03:44;4.90;99.90
46117;DHT22;32591;48.102;11.772;2023-12-20T07:06:11;4.90;99.90
46117;DHT22;32591;48.102;11.772;2023-12-20T07:08:39;4.80;99.90
46117;DHT22;32591;48.102;11.772;2023-12-20T07:11:06;4.80;99.90
46117;DHT22;32591;48.102;11.772;2023-12-20T07:13:34;4.70;99.90
46117;DHT22;32591;48.102;11.772;2023-12-20T07:16:01;4.70;99.90
46117;DHT22;32591;48.102;11.772;2023-12-20T07:18:28;4.60;99.90
46117;DHT22;32591;48.102;11.772;2023-12-20T07:20:55;4.70;99.90
46117;DHT22;32591;48.102;11.772;2023-12-20T07:23:21;4.60;99.90
46117;DHT22;32591;48.102;11.772;2023-12-20T07:25:48;4.60;99.90
46117;DHT22;32591;48.102;11.772;2023-12-20T07:28:15;4.60;99.90
46117;DHT22;32591;48.102;11.772;2023-12-20T07:30:43;4.50;99.90
46117;DHT22;32591;48.102;11.772;2023-12-20T07:33:10;4.60;99.90
46117;DHT22;32591;48.102;11.772;2023-12-20T07:35:38;4.60;99.90
46117;DHT22;32591;48.102;11.772;2023-12-20T07:38:04;4.50;99.90
46117;DHT22;32591;48.102;11.772;2023-12-20T07:40:32;4.50;99.90
46117;DHT22;32591;48.102;11.772;2023-12-20T07:42:59;4.50;99.90
46117;DHT22;32591;48.102;11.772;2023-12-20T07:45:26;4.60;99.90
46117;DHT22;32591;48.102;11.772;2023-12-20T07:47:54;4.60;99.90
46117;DHT22;32591;48.102;11.772;2023-12-20T07:50:21;4.60;99.90
46117;DHT22;32591;48.102;11.772;2023-12-20T07:52:47;4.50;99.90
46117;DHT22;32591;48.102;11.772;2023-12-20T07:55:14;4.60;99.90
46117;DHT22;32591;48.102;11.772;2023-12-20T07:57:41;4.60;99.90
46117;DHT22;32591;48.102;11.772;2023-12-20T08:00:08;4.60;99.90
46117;DHT22;32591;48.102;11.772;2023-12-20T08:02:36;4.60;99.90
46117;DHT22;32591;48.102;11.772;2023-12-20T08:05:05;4.60;99.90
46117;DHT22;32591;48.102;11.772;2023-12-20T08:07:32;4.60;99.90
46117;DHT22;32591;48.102;11.772;2023-12-20T08:09:59;4.60;99.90
46117;DHT22;32591;48.102;11.772;2023-12-20T08:12:26;4.60;99.90
46117;DHT22;32591;48.102;11.772;2023-12-20T08:14:53;4.60;99.90
46117;DHT22;32591;48.102;11.772;2023-12-20T08:17:19;4.60;99.90
46117;DHT22;32591;48.102;11.772;2023-12-20T08:19:48;4.60;99.90
46117;DHT22;32591;48.102;11.772;2023-12-20T08:22:16;4.70;99.90
46117;DHT22;32591;48.102;11.772;2023-12-20T08:24:43;4.70;99.90
46117;DHT22;32591;48.102;11.772;2023-12-20T08:27:10;4.60;99.90
46117;DHT22;32591;48.102;11.772;2023-12-20T08:29:37;4.60;99.90
46117;DHT22;32591;48.102;11.772;2023-12-20T08:32:04;4.70;99.90
46117;DHT22;32591;48.102;11.772;2023-12-20T08:34:31;4.60;99.90
46117;DHT22;32591;48.102;11.772;2023-12-20T08:36:58;4.70;99.90
46117;DHT22;32591;48.102;11.772;2023-12-20T08:39:26;4.70;99.90
46117;DHT22;32591;48.102;11.772;2023-12-20T08:41:53;4.60;99.90
46117;DHT22;32591;48.102;11.772;2023-12-20T08:44:19;4.60;99.90
46117;DHT22;32591;48.102;11.772;2023-12-20T08:46:47;4.70;99.90
46117;DHT22;32591;48.102;11.772;2023-12-20T08:49:14;4.60;99.90
46117;DHT22;32591;48.102;11.772;2023-12-20T08:51:41;4.60;99.90
46117;DHT22;32591;48.102;11.772;2023-12-20T08:54:08;4.70;99.90
46117;DHT22;32591;48.102;11.772;2023-12-20T08:56:36;4.60;99.90
46117;DHT22;32591;48.102;11.772;2023-12-20T08:59:03;4.60;99.90
46117;DHT22;32591;48.102;11.772;2023-12-20T09:01:30;4.60;99.90
46117;DHT22;32591;48.102;11.772;2023-12-20T09:03:57;4.60;99.90
46117;DHT22;32591;48.102;11.772;2023-12-20T09:06:24;4.60;99.90
46117;DHT22;32591;48.102;11.772;2023-12-20T09:08:51;4.70;99.90
46117;DHT22;32591;48.102;11.772;2023-12-20T09:11:17;4.70;99.90
46117;DHT22;32591;48.102;11.772;2023-12-20T09:13:46;4.60;99.90
46117;DHT22;32591;48.102;11.772;2023-12-20T09:16:12;4.70;99.90
46117;DHT22;32591;48.102;11.772;2023-12-20T09:18:41;4.70;99.90
46117;DHT22;32591;48.102;11.772;2023-12-20T09:21:07;4.70;99.90
46117;DHT22;32591;48.102;11.772;2023-12-20T09:23:34;4.70;99.90
46117;DHT22;32591;48.102;11.772;2023-12-20T09:26:02;4.70;99.90
46117;DHT22;32591;48.102;11.772;2023-12-20T09:28:29;4.80;99.90
46117;DHT22;32591;48.102;11.772;2023-12-20T09:30:59;5.10;99.90
46117;DHT22;32591;48.102;11.772;2023-12-20T09:33:26;4.80;99.90
46117;DHT22;32591;48.102;11.772;2023-12-20T09:35:52;4.80;99.90
46117;DHT22;32591;48.102;11.772;2023-12-20T09:38:19;4.80;99.90
46117;DHT22;32591;48.102;11.772;2023-12-20T09:40:46;4.80;99.90
46117;DHT22;32591;48.102;11.772;2023-12-20T09:43:13;4.90;99.90
46117;DHT22;32591;48.102;11.772;2023-12-20T09:45:41;4.80;99.90
46117;DHT22;32591;48.102;11.772;2023-12-20T09:48:11;4.80;99.90
46117;DHT22;32591;48.102;11.772;2023-12-20T09:50:39;4.80;99.90
46117;DHT22;32591;48.102;11.772;2023-12-20T09:53:07;4.80;99.90
46117;DHT22;32591;48.102;11.772;2023-12-20T09:55:35;4.90;99.90
46117;DHT22;32591;48.102;11.772;2023-12-20T09:58:02;4.80;99.90
46117;DHT22;32591;48.102;11.772;2023-12-20T10:00:30;4.90;99.90
46117;DHT22;32591;48.102;11.772;2023-12-20T10:02:57;4.90;99.90
46117;DHT22;32591;48.102;11.772;2023-12-20T10:05:27;4.80;99.90
46117;DHT22;32591;48.102;11.772;2023-12-20T10:07:54;4.90;99.90
46117;DHT22;32591;48.102;11.772;2023-12-20T10:10:21;4.90;99.90
46117;DHT22;32591;48.102;11.772;2023-12-20T10:13:00;4.90;99.90
46117;DHT22;32591;48.102;11.772;2023-12-20T10:15:28;4.90;99.90
46117;DHT22;32591;48.102;11.772;2023-12-20T10:17:55;4.90;99.90
46117;DHT22;32591;48.102;11.772;2023-12-20T10:20:22;5.00;99.90
46117;DHT22;32591;48.102;11.772;2023-12-20T10:22:50;4.90;99.90
46117;DHT22;32591;48.102;11.772;2023-12-20T10:25:18;5.00;99.90
46117;DHT22;32591;48.102;11.772;2023-12-20T10:27:46;5.00;99.90
46117;DHT22;32591;48.102;11.772;2023-12-20T10:30:13;5.10;99.90
46117;DHT22;32591;48.102;11.772;2023-12-20T10:32:40;5.20;99.90
46117;DHT22;32591;48.102;11.772;2023-12-20T10:35:08;5.30;99.90
46117;DHT22;32591;48.102;11.772;2023-12-20T10:37:35;5.10;99.90
46117;DHT22;32591;48.102;11.772;2023-12-20T10:40:04;5.20;99.90
46117;DHT22;32591;48.102;11.772;2023-12-20T10:42:32;5.30;99.90
46117;DHT22;32591;48.102;11.772;2023-12-20T10:44:59;5.20;99.90
46117;DHT22;32591;48.102;11.772;2023-12-20T10:47:26;5.20;99.90
46117;DHT22;32591;48.102;11.772;2023-12-20T10:49:54;5.30;99.90
46117;DHT22;32591;48.102;11.772;2023-12-20T10:52:22;5.30;99.90
46117;DHT22;32591;48.102;11.772;2023-12-20T10:54:49;5.30;99.90
46117;DHT22;32591;48.102;11.772;2023-12-20T10:57:18;5.30;99.90
46117;DHT22;32591;48.102;11.772;2023-12-20T10:59:45;5.40;99.90
46117;DHT22;32591;48.102;11.772;2023-12-20T11:02:13;5.30;99.90
46117;DHT22;32591;48.102;11.772;2023-12-20T11:04:43;5.30;99.90
46117;DHT22;32591;48.102;11.772;2023-12-20T11:07:17;5.40;99.90
46117;DHT22;32591;48.102;11.772;2023-12-20T11:09:47;5.40;99.90
46117;DHT22;32591;48.102;11.772;2023-12-20T11:12:20;5.40;99.90
46117;DHT22;32591;48.102;11.772;2023-12-20T11:14:51;5.50;99.90
46117;DHT22;32591;48.102;11.772;2023-12-20T11:17:19;5.50;99.90
46117;DHT22;32591;48.102;11.772;2023-12-20T11:20:07;5.50;99.90
46117;DHT22;32591;48.102;11.772;2023-12-20T11:22:35;5.50;99.90
46117;DHT22;32591;48.102;11.772;2023-12-20T11:25:03;5.50;99.90
46117;DHT22;32591;48.102;11.772;2023-12-20T11:27:33;5.40;99.90
46117;DHT22;32591;48.102;11.772;2023-12-20T11:30:00;5.40;99.90
46117;DHT22;32591;48.102;11.772;2023-12-20T11:32:32;5.50;99.90
46117;DHT22;32591;48.102;11.772;2023-12-20T11:35:01;5.50;99.90
46117;DHT22;32591;48.102;11.772;2023-12-20T11:37:43;5.50;99.90
46117;DHT22;32591;48.102;11.772;2023-12-20T11:40:13;5.50;99.90
46117;DHT22;32591;48.102;11.772;2023-12-20T11:42:43;5.50;99.90
46117;DHT22;32591;48.102;11.772;2023-12-20T11:45:10;5.60;99.90
46117;DHT22;32591;48.102;11.772;2023-12-20T11:47:40;5.60;99.90
46117;DHT22;32591;48.102;11.772;2023-12-20T11:50:07;5.60;99.90
46117;DHT22;32591;48.102;11.772;2023-12-20T11:52:34;5.70;99.90
46117;DHT22;32591;48.102;11.772;2023-12-20T11:55:01;5.70;99.90
46117;DHT22;32591;48.102;11.772;2023-12-20T11:57:29;5.60;99.90
46117;DHT22;32591;48.102;11.772;2023-12-20T11:59:57;5.60;99.90
46117;DHT22;32591;48.102;11.772;2023-12-20T12:02:24;5.60;99.90
46117;DHT22;32591;48.102;11.772;2023-12-20T12:04:50;5.60;99.90
46117;DHT22;32591;48.102;11.772;2023-12-20T12:07:17;5.70;99.90
46117;DHT22;32591;48.102;11.772;2023-12-20T12:09:45;5.70;99.90
46117;DHT22;32591;48.102;11.772;2023-12-20T12:12:12;5.70;99.90
46117;DHT22;32591;48.102;11.772;2023-12-20T12:14:39;5.70;99.90
46117;DHT22;32591;48.102;11.772;2023-12-20T12:17:10;5.80;99.90
46117;DHT22;32591;48.102;11.772;2023-12-20T12:19:38;5.80;99.90
46117;DHT22;32591;48.102;11.772;2023-12-20T12:22:05;5.80;99.90
46117;DHT22;32591;48.102;11.772;2023-12-20T12:24:33;5.80;99.90
46117;DHT22;32591;48.102;11.772;2023-12-20T12:27:00;5.80;99.90
46117;DHT22;32591;48.102;11.772;2023-12-20T12:29:27;5.70;99.90
46117;DHT22;32591;48.102;11.772;2023-12-20T12:31:54;5.70;99.90
46117;DHT22;32591;48.102;11.772;2023-12-20T12:34:23;5.70;99.90
46117;DHT22;32591;48.102;11.772;2023-12-20T12:36:50;5.70;99.90
46117;DHT22;32591;48.102;11.772;2023-12-20T12:39:17;5.70;99.90
46117;DHT22;32591;48.102;11.772;2023-12-20T12:41:44;5.70;99.90
46117;DHT22;32591;48.102;11.772;2023-12-20T12:44:10;5.70;99.90
46117;DHT22;32591;48.102;11.772;2023-12-20T12:46:37;5.80;99.90
46117;DHT22;32591;48.102;11.772;2023-12-20T12:49:04;5.70;99.90
46117;DHT22;32591;48.102;11.772;2023-12-20T12:51:32;5.70;99.90
46117;DHT22;32591;48.102;11.772;2023-12-20T12:53:59;5.70;99.90
46117;DHT22;32591;48.102;11.772;2023-12-20T12:56:26;5.70;99.90
46117;DHT22;32591;48.102;11.772;2023-12-20T12:58:52;5.70;99.90
46117;DHT22;32591;48.102;11.772;2023-12-20T13:01:19;5.70;99.90
46117;DHT22;32591;48.102;11.772;2023-12-20T13:03:46;5.70;99.90
46117;DHT22;32591;48.102;11.772;2023-12-20T13:06:13;5.70;99.90
46117;DHT22;32591;48.102;11.772;2023-12-20T13:08:41;5.70;99.90
46117;DHT22;32591;48.102;11.772;2023-12-20T13:11:08;5.70;99.90
46117;DHT22;32591;48.102;11.772;2023-12-20T13:13:35;5.70;99.90
46117;DHT22;32591;48.102;11.772;2023-12-20T13:16:02;5.60;99.90
46117;DHT22;32591;48.102;11.772;2023-12-20T13:18:29;5.60;99.90
46117;DHT22;32591;48.102;11.772;2023-12-20T13:20:56;6.00;99.90
46117;DHT22;32591;48.102;11.772;2023-12-20T13:23:23;5.60;99.90
46117;DHT22;32591;48.102;11.772;2023-12-20T13:25:51;5.50;99.90
46117;DHT22;32591;48.102;11.772;2023-12-20T13:28:18;5.50;99.90
46117;DHT22;32591;48.102;11.772;2023-12-20T13:30:44;5.50;99.90
46117;DHT22;32591;48.102;11.772;2023-12-20T13:33:11;5.50;99.90
46117;DHT22;32591;48.102;11.772;2023-12-20T13:35:38;5.50;99.90
46117;DHT22;32591;48.102;11.772;2023-12-20T13:38:05;5.40;99.90
46117;DHT22;32591;48.102;11.772;2023-12-20T13:40:33;5.30;99.90
46117;DHT22;32591;48.102;11.772;2023-12-20T13:43:02;5.10;99.90
46117;DHT22;32591;48.102;11.772;2023-12-20T13:45:29;5.00;99.90
46117;DHT22;32591;48.102;11.772;2023-12-20T13:47:56;4.90;99.90
46117;DHT22;32591;48.102;11.772;2023-12-20T13:50:24;4.80;99.90
46117;DHT22;32591;48.102;11.772;2023-12-20T13:52:51;4.70;99.90
46117;DHT22;32591;48.102;11.772;2023-12-20T13:55:18;4.70;99.90
46117;DHT22;32591;48.102;11.772;2023-12-20T13:57:47;4.70;99.90
46117;DHT22;32591;48.102;11.772;2023-12-20T14:00:16;4.70;99.90
46117;DHT22;32591;48.102;11.772;2023-12-20T14:02:43;4.70;99.90
46117;DHT22;32591;48.102;11.772;2023-12-20T14:05:09;4.70;99.90
46117;DHT22;32591;48.102;11.772;2023-12-20T14:07:36;4.60;99.90
46117;DHT22;32591;48.102;11.772;2023-12-20T14:10:03;4.60;99.90
46117;DHT22;32591;48.102;11.772;2023-12-20T14:12:31;4.60;99.90
46117;DHT22;32591;48.102;11.772;2023-12-20T14:15:01;4.60;99.90
46117;DHT22;32591;48.102;11.772;2023-12-20T14:17:29;4.60;99.90
46117;DHT22;32591;48.102;11.772;2023-12-20T14:19:57;4.60;99.90
46117;DHT22;32591;48.102;11.772;2023-12-20T14:22:24;4.60;99.90
46117;DHT22;32591;48.102;11.772;2023-12-20T14:24:50;5.10;99.90
46117;DHT22;32591;48.102;11.772;2023-12-20T14:27:17;4.60;99.90
46117;DHT22;32591;48.102;11.772;2023-12-20T14:29:48;4.60;99.90
46117;DHT22;32591;48.102;11.772;2023-12-20T14:32:21;4.60;99.90
46117;DHT22;32591;48.102;11.772;2023-12-20T14:34:50;4.70;99.90
46117;DHT22;32591;48.102;11.772;2023-12-20T14:37:26;4.60;99.90
46117;DHT22;32591;48.102;11.772;2023-12-20T14:40:05;4.50;99.90
46117;DHT22;32591;48.102;11.772;2023-12-20T14:42:35;4.50;99.90
46117;DHT22;32591;48.102;11.772;2023-12-20T14:45:03;4.50;99.90
46117;DHT22;32591;48.102;11.772;2023-12-20T14:47:30;4.50;99.90
46117;DHT22;32591;48.102;11.772;2023-12-20T14:49:58;4.50;99.90
46117;DHT22;32591;48.102;11.772;2023-12-20T14:52:25;4.50;99.90
46117;DHT22;32591;48.102;11.772;2023-12-20T14:54:52;4.40;99.90
46117;DHT22;32591;48.102;11.772;2023-12-20T14:57:19;4.40;99.90
46117;DHT22;32591;48.102;11.772;2023-12-20T14:59:45;4.50;99.90
46117;DHT22;32591;48.102;11.772;2023-12-20T15:02:12;4.50;99.90
46117;DHT22;32591;48.102;11.772;2023-12-20T15:04:40;4.40;99.90
46117;DHT22;32591;48.102;11.772;2023-12-20T15:07:09;4.40;99.90
46117;DHT22;32591;48.102;11.772;2023-12-20T15:09:35;4.40;99.90
46117;DHT22;32591;48.102;11.772;2023-12-20T15:12:02;4.40;99.90
46117;DHT22;32591;48.102;11.772;2023-12-20T15:14:30;4.40;99.90
46117;DHT22;32591;48.102;11.772;2023-12-20T15:16:56;4.40;99.90
46117;DHT22;32591;48.102;11.772;2023-12-20T15:19:23;4.50;99.90
46117;DHT22;32591;48.102;11.772;2023-12-20T15:21:50;4.50;99.90
46117;DHT22;32591;48.102;11.772;2023-12-20T15:24:18;4.50;99.90
46117;DHT22;32591;48.102;11.772;2023-12-20T15:26:52;4.50;99.90
46117;DHT22;32591;48.102;11.772;2023-12-20T15:29:20;4.50;99.90
46117;DHT22;32591;48.102;11.772;2023-12-20T15:31:47;4.50;99.90
46117;DHT22;32591;48.102;11.772;2023-12-20T15:34:14;4.40;99.90